createdAt,value
2019-05-26T00:00:30.033Z,1008.55
2019-05-26T00:01:30.075Z,1008.52
2019-05-26T00:02:29.981Z,1008.51
2019-05-26T00:03:30.110Z,1008.49
2019-05-26T00:04:29.924Z,1008.53
2019-05-26T00:05:30.011Z,1008.52
2019-05-26T00:06:29.870Z,1008.51
2019-05-26T00:07:30.837Z,1008.48
2019-05-26T00:08:29.900Z,1008.49
2019-05-26T00:09:29.790Z,1008.48
2019-05-26T00:10:29.839Z,1008.52
2019-05-26T00:11:29.816Z,1008.47
2019-05-26T00:12:29.710Z,1008.46
2019-05-26T00:13:29.683Z,1008.48
2019-05-26T00:14:29.658Z,1008.47
2019-05-26T00:15:29.646Z,1008.47
2019-05-26T00:16:29.598Z,1008.45
2019-05-26T00:17:29.573Z,1008.44
2019-05-26T00:18:33.092Z,1008.48
2019-05-26T00:19:29.576Z,1008.40
2019-05-26T00:20:29.495Z,1008.43
2019-05-26T00:21:29.558Z,1008.39
2019-05-26T00:22:29.441Z,1008.41
2019-05-26T00:23:29.496Z,1008.44
2019-05-26T00:24:29.389Z,1008.43
2019-05-26T00:25:29.406Z,1008.43
2019-05-26T00:26:29.331Z,1008.41
2019-05-26T00:27:29.305Z,1008.43
2019-05-26T00:28:29.327Z,1008.39
2019-05-26T00:29:29.246Z,1008.43
2019-05-26T00:30:29.233Z,1008.38
2019-05-26T00:31:29.200Z,1008.35
2019-05-26T00:32:29.171Z,1008.36
2019-05-26T00:33:29.156Z,1008.37
2019-05-26T00:34:29.145Z,1008.31
2019-05-26T00:35:29.086Z,1008.33
2019-05-26T00:36:29.056Z,1008.33
2019-05-26T00:37:29.064Z,1008.29
2019-05-26T00:38:29.014Z,1008.29
2019-05-26T00:39:29.078Z,1008.24
2019-05-26T00:40:28.950Z,1008.24
2019-05-26T00:41:28.990Z,1008.23
2019-05-26T00:42:28.900Z,1008.19
2019-05-26T00:43:28.897Z,1008.20
2019-05-26T00:44:28.855Z,1008.17
2019-05-26T00:45:28.918Z,1008.18
2019-05-26T00:46:28.784Z,1008.16
2019-05-26T00:47:28.828Z,1008.17
2019-05-26T00:48:28.816Z,1008.14
2019-05-26T00:49:28.737Z,1008.13
2019-05-26T00:50:28.686Z,1008.08
2019-05-26T00:51:28.656Z,1008.06
2019-05-26T00:52:28.620Z,1008.05
2019-05-26T00:53:28.613Z,1008.03
2019-05-26T00:54:28.574Z,1008.04
2019-05-26T00:55:29.652Z,1008.00
2019-05-26T00:56:28.525Z,1008.02
2019-05-26T00:57:28.497Z,1007.97
2019-05-26T00:58:28.460Z,1007.93
2019-05-26T00:59:28.436Z,1007.94
2019-05-26T01:00:28.461Z,1007.94
2019-05-26T01:01:28.379Z,1007.93
2019-05-26T01:02:28.373Z,1007.96
2019-05-26T01:03:28.328Z,1007.90
2019-05-26T01:04:28.384Z,1007.93
2019-05-26T01:05:28.272Z,1007.92
2019-05-26T01:06:28.311Z,1007.94
2019-05-26T01:07:28.219Z,1007.91
2019-05-26T01:08:28.192Z,1007.88
2019-05-26T01:09:28.155Z,1007.91
2019-05-26T01:10:28.290Z,1007.90
2019-05-26T01:11:28.108Z,1007.91
2019-05-26T01:12:28.127Z,1007.88
2019-05-26T01:13:28.055Z,1007.85
2019-05-26T01:14:28.047Z,1007.81
2019-05-26T01:15:27.995Z,1007.83
2019-05-26T01:16:28.104Z,1007.85
2019-05-26T01:17:27.942Z,1007.86
2019-05-26T01:18:27.970Z,1007.84
2019-05-26T01:19:27.889Z,1007.86
2019-05-26T01:20:28.906Z,1007.86
2019-05-26T01:21:27.835Z,1007.87
2019-05-26T01:22:27.893Z,1007.86
2019-05-26T01:23:27.782Z,1007.93
2019-05-26T01:24:27.806Z,1007.92
2019-05-26T01:25:27.734Z,1007.93
2019-05-26T01:26:27.718Z,1007.93
2019-05-26T01:27:27.666Z,1007.93
2019-05-26T01:28:27.732Z,1007.93
2019-05-26T01:29:27.616Z,1007.92
2019-05-26T01:30:27.642Z,1007.90
2019-05-26T01:31:27.559Z,1007.88
2019-05-26T01:32:27.548Z,1007.89
2019-05-26T01:33:27.507Z,1007.87
2019-05-26T01:34:27.574Z,1007.90
2019-05-26T01:35:27.454Z,1007.87
2019-05-26T01:36:27.482Z,1007.88
2019-05-26T01:37:27.404Z,1007.88
2019-05-26T01:38:27.390Z,1007.86
2019-05-26T01:39:27.345Z,1007.87
2019-05-26T01:40:27.404Z,1007.88
2019-05-26T01:41:27.286Z,1007.88
2019-05-26T01:42:27.314Z,1007.83
2019-05-26T01:43:27.235Z,1007.88
2019-05-26T01:44:27.229Z,1007.83
2019-05-26T01:45:27.175Z,1007.85
2019-05-26T01:46:27.240Z,1007.82
2019-05-26T01:47:27.123Z,1007.81
2019-05-26T01:48:27.167Z,1007.80
2019-05-26T01:49:27.085Z,1007.75
2019-05-26T01:50:27.065Z,1007.77
2019-05-26T01:51:27.012Z,1007.81
2019-05-26T01:52:27.099Z,1007.77
2019-05-26T01:53:26.956Z,1007.80
2019-05-26T01:54:27.007Z,1007.77
2019-05-26T01:55:26.908Z,1007.78
2019-05-26T01:56:26.904Z,1007.77
2019-05-26T01:57:26.860Z,1007.77
2019-05-26T01:58:26.826Z,1007.74
2019-05-26T01:59:26.821Z,1007.76
2019-05-26T02:00:26.768Z,1007.73
2019-05-26T02:01:26.840Z,1007.73
2019-05-26T02:02:26.712Z,1007.73
2019-05-26T02:03:26.744Z,1007.72
2019-05-26T02:04:26.658Z,1007.67
2019-05-26T02:05:26.652Z,1007.65
2019-05-26T02:06:26.611Z,1007.66
2019-05-26T02:07:26.579Z,1007.64
2019-05-26T02:08:38.975Z,1007.64
2019-05-26T02:09:26.523Z,1007.60
2019-05-26T02:10:26.587Z,1007.62
2019-05-26T02:11:26.471Z,1007.59
2019-05-26T02:12:26.492Z,1007.55
2019-05-26T02:13:26.414Z,1007.59
2019-05-26T02:14:26.403Z,1007.58
2019-05-26T02:15:26.357Z,1007.54
2019-05-26T02:16:26.417Z,1007.54
2019-05-26T02:17:26.298Z,1007.53
2019-05-26T02:18:26.289Z,1007.53
2019-05-26T02:19:26.246Z,1007.53
2019-05-26T02:20:26.247Z,1007.51
2019-05-26T02:21:26.193Z,1007.56
2019-05-26T02:22:26.251Z,1007.53
2019-05-26T02:23:26.132Z,1007.54
2019-05-26T02:24:26.182Z,1007.50
2019-05-26T02:25:26.092Z,1007.47
2019-05-26T02:26:27.079Z,1007.47
2019-05-26T02:27:26.023Z,1007.49
2019-05-26T02:28:26.001Z,1007.47
2019-05-26T02:29:26.989Z,1007.45
2019-05-26T02:30:25.945Z,1007.44
2019-05-26T02:31:25.988Z,1007.48
2019-05-26T02:32:25.924Z,1007.44
2019-05-26T02:33:25.902Z,1007.42
2019-05-26T02:34:25.827Z,1007.44
2019-05-26T02:35:25.907Z,1007.49
2019-05-26T02:36:25.785Z,1007.42
2019-05-26T02:37:25.830Z,1007.43
2019-05-26T02:38:26.597Z,1007.43
2019-05-26T02:39:25.736Z,1007.43
2019-05-26T02:40:25.670Z,1007.39
2019-05-26T02:41:25.756Z,1007.41
2019-05-26T02:42:25.703Z,1007.45
2019-05-26T02:43:25.658Z,1007.46
2019-05-26T02:44:25.571Z,1007.43
2019-05-26T02:45:25.578Z,1007.43
2019-05-26T02:46:25.502Z,1007.41
2019-05-26T02:47:25.589Z,1007.41
2019-05-26T02:48:25.445Z,1007.35
2019-05-26T02:49:25.512Z,1007.39
2019-05-26T02:50:25.388Z,1007.38
2019-05-26T02:51:25.414Z,1007.43
2019-05-26T02:52:25.337Z,1007.45
2019-05-26T02:53:25.425Z,1007.41
2019-05-26T02:54:25.282Z,1007.43
2019-05-26T02:55:26.363Z,1007.45
2019-05-26T02:56:25.232Z,1007.41
2019-05-26T02:57:25.245Z,1007.40
2019-05-26T02:58:25.180Z,1007.40
2019-05-26T02:59:25.290Z,1007.37
2019-05-26T03:00:25.114Z,1007.41
2019-05-26T03:01:25.166Z,1007.40
2019-05-26T03:02:25.064Z,1007.43
2019-05-26T03:03:27.204Z,1007.43
2019-05-26T03:04:25.004Z,1007.42
2019-05-26T03:05:26.017Z,1007.37
2019-05-26T03:06:24.955Z,1007.40
2019-05-26T03:07:25.006Z,1007.43
2019-05-26T03:08:24.897Z,1007.44
2019-05-26T03:09:24.977Z,1007.42
2019-05-26T03:10:24.838Z,1007.40
2019-05-26T03:11:24.881Z,1007.39
2019-05-26T03:12:24.782Z,1007.40
2019-05-26T03:13:24.856Z,1007.44
2019-05-26T03:14:24.734Z,1007.44
2019-05-26T03:15:24.799Z,1007.45
2019-05-26T03:16:24.668Z,1007.42
2019-05-26T03:17:24.643Z,1007.41
2019-05-26T03:18:24.679Z,1007.41
2019-05-26T03:19:24.882Z,1007.42
2019-05-26T03:20:24.591Z,1007.43
2019-05-26T03:21:24.533Z,1007.41
2019-05-26T03:22:24.614Z,1007.42
2019-05-26T03:23:24.487Z,1007.38
2019-05-26T03:24:24.521Z,1007.34
2019-05-26T03:25:24.722Z,1007.37
2019-05-26T03:26:24.522Z,1007.36
2019-05-26T03:27:24.583Z,1007.37
2019-05-26T03:28:24.744Z,1007.40
2019-05-26T03:29:24.615Z,1007.37
2019-05-26T03:30:24.628Z,1007.35
2019-05-26T03:31:24.358Z,1007.34
2019-05-26T03:32:24.319Z,1007.33
2019-05-26T03:33:24.208Z,1007.31
2019-05-26T03:34:24.173Z,1007.33
2019-05-26T03:35:24.150Z,1007.34
2019-05-26T03:36:24.186Z,1007.29
2019-05-26T03:37:24.088Z,1007.31
2019-05-26T03:38:24.097Z,1007.32
2019-05-26T03:39:42.278Z,1007.35
2019-05-26T03:40:24.199Z,1007.36
2019-05-26T03:41:23.977Z,1007.31
2019-05-26T03:42:24.021Z,1007.32
2019-05-26T03:43:23.923Z,1007.33
2019-05-26T03:44:23.955Z,1007.33
2019-05-26T03:45:23.868Z,1007.36
2019-05-26T03:46:23.860Z,1007.33
2019-05-26T03:47:23.809Z,1007.35
2019-05-26T03:48:23.874Z,1007.41
2019-05-26T03:49:23.754Z,1007.37
2019-05-26T03:50:23.784Z,1007.35
2019-05-26T03:51:23.702Z,1007.40
2019-05-26T03:52:23.707Z,1007.39
2019-05-26T03:53:23.644Z,1007.39
2019-05-26T03:54:23.712Z,1007.36
2019-05-26T03:55:23.585Z,1007.37
2019-05-26T03:56:23.619Z,1007.32
2019-05-26T03:57:23.521Z,1007.32
2019-05-26T03:58:23.614Z,1007.29
2019-05-26T03:59:23.481Z,1007.29
2019-05-26T04:00:23.521Z,1007.25
2019-05-26T04:01:23.421Z,1007.24
2019-05-26T04:02:23.435Z,1007.18
2019-05-26T04:03:23.362Z,1007.20
2019-05-26T04:04:23.440Z,1007.24
2019-05-26T04:05:23.307Z,1007.21
2019-05-26T04:06:23.362Z,1007.25
2019-05-26T04:07:23.254Z,1007.23
2019-05-26T04:08:23.264Z,1007.21
2019-05-26T04:09:23.194Z,1007.23
2019-05-26T04:10:23.275Z,1007.25
2019-05-26T04:11:23.145Z,1007.28
2019-05-26T04:12:23.116Z,1007.23
2019-05-26T04:13:23.092Z,1007.28
2019-05-26T04:14:23.079Z,1007.25
2019-05-26T04:15:23.041Z,1007.24
2019-05-26T04:16:23.085Z,1007.20
2019-05-26T04:17:23.085Z,1007.18
2019-05-26T04:18:22.945Z,1007.16
2019-05-26T04:19:24.028Z,1007.21
2019-05-26T04:20:22.902Z,1007.14
2019-05-26T04:21:22.916Z,1007.21
2019-05-26T04:22:22.843Z,1007.19
2019-05-26T04:23:23.843Z,1007.19
2019-05-26T04:24:22.787Z,1007.19
2019-05-26T04:25:22.847Z,1007.20
2019-05-26T04:26:22.741Z,1007.20
2019-05-26T04:27:22.760Z,1007.25
2019-05-26T04:28:22.677Z,1007.24
2019-05-26T04:29:23.685Z,1007.25
2019-05-26T04:30:22.610Z,1007.26
2019-05-26T04:31:22.673Z,1007.21
2019-05-26T04:32:22.556Z,1007.24
2019-05-26T04:33:22.576Z,1007.22
2019-05-26T04:34:22.511Z,1007.25
2019-05-26T04:35:22.495Z,1007.24
2019-05-26T04:36:22.448Z,1007.25
2019-05-26T04:37:22.515Z,1007.24
2019-05-26T04:38:22.400Z,1007.22
2019-05-26T04:39:22.360Z,1007.20
2019-05-26T04:40:27.274Z,1007.24
2019-05-26T04:41:22.332Z,1007.19
2019-05-26T04:42:22.276Z,1007.21
2019-05-26T04:43:22.261Z,1007.20
2019-05-26T04:44:22.349Z,1007.22
2019-05-26T04:45:22.194Z,1007.21
2019-05-26T04:46:22.259Z,1007.22
2019-05-26T04:47:22.137Z,1007.19
2019-05-26T04:48:22.176Z,1007.16
2019-05-26T04:49:22.089Z,1007.18
2019-05-26T04:50:22.084Z,1007.16
2019-05-26T04:51:22.035Z,1007.13
2019-05-26T04:52:22.097Z,1007.17
2019-05-26T04:53:21.977Z,1007.13
2019-05-26T04:54:22.048Z,1007.14
2019-05-26T04:55:21.915Z,1007.14
2019-05-26T04:56:21.931Z,1007.16
2019-05-26T04:57:21.870Z,1007.14
2019-05-26T04:58:21.937Z,1007.13
2019-05-26T04:59:21.797Z,1007.13
2019-05-26T05:00:21.860Z,1007.11
2019-05-26T05:01:21.757Z,1007.13
2019-05-26T05:02:21.760Z,1007.12
2019-05-26T05:03:21.711Z,1007.10
2019-05-26T05:04:21.771Z,1007.13
2019-05-26T05:05:21.635Z,1007.11
2019-05-26T05:06:21.689Z,1007.12
2019-05-26T05:07:21.598Z,1007.13
2019-05-26T05:08:21.558Z,1007.16
2019-05-26T05:09:21.540Z,1007.13
2019-05-26T05:10:21.557Z,1007.14
2019-05-26T05:11:21.515Z,1007.16
2019-05-26T05:12:21.448Z,1007.16
2019-05-26T05:13:24.798Z,1007.15
2019-05-26T05:14:21.394Z,1007.14
2019-05-26T05:15:21.361Z,1007.15
2019-05-26T05:16:21.334Z,1007.15
2019-05-26T05:17:21.372Z,1007.18
2019-05-26T05:18:21.283Z,1007.17
2019-05-26T05:19:22.277Z,1007.18
2019-05-26T05:20:21.225Z,1007.20
2019-05-26T05:21:21.357Z,1007.22
2019-05-26T05:22:21.170Z,1007.19
2019-05-26T05:23:21.183Z,1007.19
2019-05-26T05:24:21.114Z,1007.23
2019-05-26T05:25:21.211Z,1007.19
2019-05-26T05:26:21.055Z,1007.23
2019-05-26T05:27:21.122Z,1007.23
2019-05-26T05:28:21.003Z,1007.21
2019-05-26T05:29:21.032Z,1007.23
2019-05-26T05:30:20.955Z,1007.22
2019-05-26T05:31:20.925Z,1007.18
2019-05-26T05:32:20.891Z,1007.19
2019-05-26T05:33:20.953Z,1007.14
2019-05-26T05:34:20.837Z,1007.15
2019-05-26T05:35:20.857Z,1007.13
2019-05-26T05:36:20.783Z,1007.11
2019-05-26T05:37:20.767Z,1007.08
2019-05-26T05:38:20.721Z,1007.11
2019-05-26T05:39:20.779Z,1007.10
2019-05-26T05:40:20.671Z,1007.08
2019-05-26T05:41:20.706Z,1007.08
2019-05-26T05:42:20.610Z,1007.10
2019-05-26T05:43:20.596Z,1007.08
2019-05-26T05:44:20.586Z,1007.09
2019-05-26T05:45:20.537Z,1007.06
2019-05-26T05:46:20.535Z,1007.07
2019-05-26T05:47:20.481Z,1007.06
2019-05-26T05:48:20.542Z,1007.05
2019-05-26T05:49:20.423Z,1007.08
2019-05-26T05:50:20.462Z,1007.06
2019-05-26T05:51:20.365Z,1007.07
2019-05-26T05:52:20.339Z,1007.01
2019-05-26T05:53:22.424Z,1007.07
2019-05-26T05:54:20.283Z,1007.02
2019-05-26T05:55:20.381Z,1007.02
2019-05-26T05:56:20.230Z,1007.01
2019-05-26T05:57:21.301Z,1007.03
2019-05-26T05:58:20.167Z,1006.98
2019-05-26T05:59:20.145Z,1007.00
2019-05-26T06:00:20.195Z,1007.01
2019-05-26T06:01:20.104Z,1007.00
2019-05-26T06:02:20.105Z,1007.02
2019-05-26T06:03:20.029Z,1006.97
2019-05-26T06:04:22.084Z,1006.99
2019-05-26T06:05:19.996Z,1007.00
2019-05-26T06:06:19.950Z,1007.01
2019-05-26T06:07:19.939Z,1007.02
2019-05-26T06:08:20.149Z,1006.95
2019-05-26T06:09:19.949Z,1006.98
2019-05-26T06:10:19.840Z,1006.97
2019-05-26T06:11:19.857Z,1006.96
2019-05-26T06:12:19.786Z,1006.91
2019-05-26T06:13:19.770Z,1006.90
2019-05-26T06:14:20.893Z,1006.91
2019-05-26T06:15:19.701Z,1006.89
2019-05-26T06:16:19.682Z,1006.85
2019-05-26T06:17:19.702Z,1006.89
2019-05-26T06:18:19.622Z,1006.88
2019-05-26T06:19:19.590Z,1006.84
2019-05-26T06:20:19.586Z,1006.93
2019-05-26T06:21:19.535Z,1006.92
2019-05-26T06:22:19.516Z,1006.88
2019-05-26T06:23:19.531Z,1006.87
2019-05-26T06:24:19.455Z,1006.89
2019-05-26T06:25:19.425Z,1006.85
2019-05-26T06:26:19.403Z,1006.91
2019-05-26T06:27:19.458Z,1006.88
2019-05-26T06:28:19.342Z,1006.89
2019-05-26T06:29:21.420Z,1006.89
2019-05-26T06:30:19.293Z,1006.90
2019-05-26T06:31:19.278Z,1006.91
2019-05-26T06:32:19.230Z,1006.93
2019-05-26T06:33:19.293Z,1006.87
2019-05-26T06:34:19.175Z,1006.88
2019-05-26T06:35:19.147Z,1006.89
2019-05-26T06:36:19.226Z,1006.84
2019-05-26T06:37:19.096Z,1006.92
2019-05-26T06:38:19.067Z,1006.91
2019-05-26T06:39:19.038Z,1006.91
2019-05-26T06:40:19.037Z,1006.90
2019-05-26T06:41:32.294Z,1006.92
2019-05-26T06:42:19.043Z,1006.89
2019-05-26T06:43:18.928Z,1006.92
2019-05-26T06:44:18.898Z,1006.93
2019-05-26T06:45:18.879Z,1006.88
2019-05-26T06:46:18.837Z,1006.94
2019-05-26T06:47:18.877Z,1006.97
2019-05-26T06:48:18.788Z,1006.96
2019-05-26T06:49:18.794Z,1006.99
2019-05-26T06:50:18.748Z,1006.96
2019-05-26T06:51:19.725Z,1006.96
2019-05-26T06:52:18.676Z,1006.97
2019-05-26T06:53:18.715Z,1006.98
2019-05-26T06:54:18.627Z,1006.96
2019-05-26T06:55:18.612Z,1006.95
2019-05-26T06:56:18.578Z,1007.00
2019-05-26T06:57:18.551Z,1006.94
2019-05-26T06:58:18.516Z,1006.96
2019-05-26T06:59:18.493Z,1006.97
2019-05-26T07:00:18.474Z,1006.93
2019-05-26T07:01:19.478Z,1006.98
2019-05-26T07:02:18.417Z,1006.97
2019-05-26T07:03:18.379Z,1006.98
2019-05-26T07:04:18.352Z,1006.95
2019-05-26T07:05:18.761Z,1006.99
2019-05-26T07:06:18.298Z,1007.00
2019-05-26T07:07:19.351Z,1007.05
2019-05-26T07:08:18.246Z,1007.04
2019-05-26T07:09:18.337Z,1007.03
2019-05-26T07:10:18.187Z,1007.06
2019-05-26T07:11:18.151Z,1007.03
2019-05-26T07:12:18.215Z,1007.00
2019-05-26T07:13:18.154Z,1006.97
2019-05-26T07:14:18.078Z,1007.01
2019-05-26T07:15:18.046Z,1006.94
2019-05-26T07:16:34.846Z,1006.93
2019-05-26T07:17:20.572Z,1006.90
2019-05-26T07:18:17.982Z,1006.96
2019-05-26T07:19:17.942Z,1006.97
2019-05-26T07:20:17.909Z,1006.98
2019-05-26T07:21:17.904Z,1006.99
2019-05-26T07:22:17.858Z,1006.95
2019-05-26T07:23:17.920Z,1006.91
2019-05-26T07:24:17.796Z,1006.92
2019-05-26T07:25:17.923Z,1006.93
2019-05-26T07:26:17.749Z,1006.91
2019-05-26T07:27:17.746Z,1006.93
2019-05-26T07:28:17.687Z,1006.88
2019-05-26T07:29:17.762Z,1006.91
2019-05-26T07:30:17.706Z,1006.89
2019-05-26T07:31:17.721Z,1006.88
2019-05-26T07:32:17.579Z,1006.84
2019-05-26T07:33:17.575Z,1006.81
2019-05-26T07:34:17.533Z,1006.85
2019-05-26T07:35:17.598Z,1006.89
2019-05-26T07:36:17.466Z,1006.85
2019-05-26T07:37:17.442Z,1006.84
2019-05-26T07:38:17.507Z,1006.90
2019-05-26T07:39:17.613Z,1006.89
2019-05-26T07:40:17.373Z,1006.88
2019-05-26T07:41:17.429Z,1006.87
2019-05-26T07:42:17.300Z,1006.88
2019-05-26T07:43:17.347Z,1006.86
2019-05-26T07:44:17.262Z,1006.84
2019-05-26T07:45:17.219Z,1006.88
2019-05-26T07:46:17.265Z,1006.82
2019-05-26T07:47:17.169Z,1006.87
2019-05-26T07:48:17.134Z,1006.85
2019-05-26T07:49:17.112Z,1006.83
2019-05-26T07:50:17.085Z,1006.86
2019-05-26T07:51:17.098Z,1006.83
2019-05-26T07:52:17.042Z,1006.82
2019-05-26T07:53:16.999Z,1006.87
2019-05-26T07:54:25.431Z,1006.88
2019-05-26T07:55:16.944Z,1006.81
2019-05-26T07:56:16.916Z,1006.85
2019-05-26T07:57:16.996Z,1006.85
2019-05-26T07:58:16.945Z,1006.89
2019-05-26T07:59:16.838Z,1006.88
2019-05-26T08:00:16.852Z,1006.85
2019-05-26T08:01:16.779Z,1006.84
2019-05-26T08:02:16.863Z,1006.82
2019-05-26T08:03:16.723Z,1006.86
2019-05-26T08:04:16.781Z,1006.81
2019-05-26T08:05:16.669Z,1006.81
2019-05-26T08:06:16.692Z,1006.79
2019-05-26T08:07:16.648Z,1006.74
2019-05-26T08:08:16.593Z,1006.71
2019-05-26T08:09:16.611Z,1006.70
2019-05-26T08:10:16.533Z,1006.68
2019-05-26T08:11:16.504Z,1006.72
2019-05-26T08:12:25.440Z,1006.69
2019-05-26T08:13:16.453Z,1006.68
2019-05-26T08:14:17.461Z,1006.65
2019-05-26T08:15:16.388Z,1006.66
2019-05-26T08:16:16.453Z,1006.66
2019-05-26T08:17:16.338Z,1006.69
2019-05-26T08:18:16.372Z,1006.64
2019-05-26T08:19:16.282Z,1006.67
2019-05-26T08:20:17.300Z,1006.67
2019-05-26T08:21:16.231Z,1006.57
2019-05-26T08:22:16.223Z,1006.53
2019-05-26T08:23:16.201Z,1006.64
2019-05-26T08:24:16.145Z,1006.53
2019-05-26T08:25:16.222Z,1006.56
2019-05-26T08:26:16.093Z,1006.57
2019-05-26T08:27:17.143Z,1006.53
2019-05-26T08:28:16.042Z,1006.59
2019-05-26T08:29:16.032Z,1006.58
2019-05-26T08:30:15.976Z,1006.53
2019-05-26T08:31:16.054Z,1006.54
2019-05-26T08:32:15.927Z,1006.56
2019-05-26T08:33:17.129Z,1006.58
2019-05-26T08:34:15.869Z,1006.57
2019-05-26T08:35:15.880Z,1006.60
2019-05-26T08:36:15.813Z,1006.63
2019-05-26T08:37:15.801Z,1006.60
2019-05-26T08:38:15.760Z,1006.62
2019-05-26T08:39:15.794Z,1006.60
2019-05-26T08:40:15.709Z,1006.60
2019-05-26T08:41:15.707Z,1006.66
2019-05-26T08:42:26.980Z,1006.61
2019-05-26T08:43:15.621Z,1006.59
2019-05-26T08:44:15.653Z,1006.57
2019-05-26T08:45:15.569Z,1006.56
2019-05-26T08:46:15.645Z,1006.58
2019-05-26T08:47:15.516Z,1006.57
2019-05-26T08:48:15.577Z,1006.47
2019-05-26T08:49:15.459Z,1006.53
2019-05-26T08:50:15.453Z,1006.48
2019-05-26T08:51:15.404Z,1006.51
2019-05-26T08:52:15.479Z,1006.50
2019-05-26T08:53:15.352Z,1006.51
2019-05-26T08:54:15.320Z,1006.49
2019-05-26T08:55:15.406Z,1006.46
2019-05-26T08:56:15.258Z,1006.45
2019-05-26T08:57:15.302Z,1006.47
2019-05-26T08:58:15.216Z,1006.42
2019-05-26T08:59:15.184Z,1006.43
2019-05-26T09:00:15.155Z,1006.44
2019-05-26T09:01:15.132Z,1006.43
2019-05-26T09:02:15.134Z,1006.46
2019-05-26T09:03:15.074Z,1006.42
2019-05-26T09:04:15.147Z,1006.40
2019-05-26T09:05:15.029Z,1006.39
2019-05-26T09:06:14.991Z,1006.44
2019-05-26T09:07:14.965Z,1006.38
2019-05-26T09:08:14.933Z,1006.36
2019-05-26T09:09:14.909Z,1006.33
2019-05-26T09:10:14.883Z,1006.38
2019-05-26T09:11:14.868Z,1006.30
2019-05-26T09:12:14.827Z,1006.36
2019-05-26T09:13:14.800Z,1006.33
2019-05-26T09:14:15.869Z,1006.34
2019-05-26T09:15:14.748Z,1006.34
2019-05-26T09:16:14.795Z,1006.34
2019-05-26T09:17:14.709Z,1006.31
2019-05-26T09:18:14.745Z,1006.33
2019-05-26T09:19:14.659Z,1006.30
2019-05-26T09:20:14.647Z,1006.37
2019-05-26T09:21:14.584Z,1006.36
2019-05-26T09:22:14.658Z,1006.34
2019-05-26T09:23:14.525Z,1006.34
2019-05-26T09:24:14.577Z,1006.31
2019-05-26T09:25:14.479Z,1006.28
2019-05-26T09:26:14.489Z,1006.31
2019-05-26T09:27:14.423Z,1006.26
2019-05-26T09:28:14.395Z,1006.26
2019-05-26T09:29:14.361Z,1006.23
2019-05-26T09:30:14.354Z,1006.22
2019-05-26T09:31:14.420Z,1006.24
2019-05-26T09:32:14.287Z,1006.24
2019-05-26T09:33:14.332Z,1006.19
2019-05-26T09:34:14.227Z,1006.24
2019-05-26T09:35:14.205Z,1006.21
2019-05-26T09:36:14.170Z,1006.25
2019-05-26T09:37:14.151Z,1006.20
2019-05-26T09:38:14.119Z,1006.20
2019-05-26T09:39:14.097Z,1006.21
2019-05-26T09:40:14.066Z,1006.18
2019-05-26T09:41:14.040Z,1006.16
2019-05-26T09:42:14.019Z,1006.21
2019-05-26T09:43:16.571Z,1006.14
2019-05-26T09:44:13.960Z,1006.16
2019-05-26T09:45:13.950Z,1006.12
2019-05-26T09:46:13.995Z,1006.18
2019-05-26T09:47:13.873Z,1006.11
2019-05-26T09:48:13.920Z,1006.15
2019-05-26T09:49:13.845Z,1006.14
2019-05-26T09:50:13.809Z,1006.11
2019-05-26T09:51:13.767Z,1006.10
2019-05-26T09:52:13.737Z,1006.09
2019-05-26T09:53:13.738Z,1006.06
2019-05-26T09:54:13.698Z,1006.07
2019-05-26T09:55:13.662Z,1006.14
2019-05-26T09:56:13.656Z,1006.05
2019-05-26T09:57:13.606Z,1006.03
2019-05-26T09:58:14.642Z,1006.04
2019-05-26T09:59:13.558Z,1006.04
2019-05-26T10:00:16.042Z,1006.05
2019-05-26T10:01:13.495Z,1006.05
2019-05-26T10:02:13.551Z,1006.04
2019-05-26T10:03:13.477Z,1006.10
2019-05-26T10:04:13.411Z,1006.02
2019-05-26T10:05:13.382Z,1006.04
2019-05-26T10:06:13.466Z,1005.96
2019-05-26T10:07:15.856Z,1005.98
2019-05-26T10:08:13.376Z,1006.03
2019-05-26T10:09:13.383Z,1006.01
2019-05-26T10:10:13.293Z,1006.00
2019-05-26T10:11:13.290Z,1006.06
2019-05-26T10:12:13.311Z,1006.04
2019-05-26T10:13:13.174Z,1006.00
2019-05-26T10:14:13.165Z,1005.99
2019-05-26T10:15:13.290Z,1006.00
2019-05-26T10:16:13.139Z,1006.05
2019-05-26T10:17:13.156Z,1005.98
2019-05-26T10:18:13.074Z,1006.02
2019-05-26T10:19:13.012Z,1006.02
2019-05-26T10:20:12.974Z,1005.97
2019-05-26T10:21:13.701Z,1006.01
2019-05-26T10:22:12.993Z,1006.03
2019-05-26T10:23:12.894Z,1005.95
2019-05-26T10:24:13.017Z,1005.96
2019-05-26T10:25:12.918Z,1005.99
2019-05-26T10:26:12.885Z,1006.02
2019-05-26T10:27:12.794Z,1005.98
2019-05-26T10:28:12.812Z,1005.96
2019-05-26T10:29:12.781Z,1005.93
2019-05-26T10:30:14.782Z,1005.93
2019-05-26T10:31:12.761Z,1005.94
2019-05-26T10:32:12.729Z,1005.90
2019-05-26T10:33:12.625Z,1005.90
2019-05-26T10:34:13.789Z,1005.90
2019-05-26T10:35:12.728Z,1005.96
2019-05-26T10:36:12.648Z,1005.91
2019-05-26T10:37:12.532Z,1005.89
2019-05-26T10:38:12.587Z,1005.92
2019-05-26T10:39:12.476Z,1005.92
2019-05-26T10:40:13.507Z,1005.88
2019-05-26T10:41:12.413Z,1005.88
2019-05-26T10:42:13.406Z,1005.90
2019-05-26T10:43:12.358Z,1005.91
2019-05-26T10:44:12.402Z,1005.91
2019-05-26T10:45:12.310Z,1005.95
2019-05-26T10:46:12.318Z,1005.97
2019-05-26T10:47:12.283Z,1005.95
2019-05-26T10:48:20.229Z,1005.94
2019-05-26T10:49:12.266Z,1005.90
2019-05-26T10:50:12.242Z,1005.90
2019-05-26T10:51:12.145Z,1005.84
2019-05-26T10:52:12.444Z,1005.90
2019-05-26T10:53:12.188Z,1005.85
2019-05-26T10:54:12.167Z,1005.90
2019-05-26T10:55:12.041Z,1005.89
2019-05-26T10:56:12.080Z,1005.80
2019-05-26T10:57:11.985Z,1005.78
2019-05-26T10:58:14.039Z,1005.79
2019-05-26T10:59:11.928Z,1005.76
2019-05-26T11:00:12.001Z,1005.78
2019-05-26T11:01:11.982Z,1005.80
2019-05-26T11:02:13.963Z,1005.80
2019-05-26T11:03:12.086Z,1005.84
2019-05-26T11:04:11.823Z,1005.83
2019-05-26T11:05:11.769Z,1005.77
2019-05-26T11:06:12.286Z,1005.81
2019-05-26T11:07:11.724Z,1005.81
2019-05-26T11:08:11.749Z,1005.75
2019-05-26T11:09:11.680Z,1005.74
2019-05-26T11:10:11.641Z,1005.76
2019-05-26T11:11:11.667Z,1005.75
2019-05-26T11:12:11.674Z,1005.77
2019-05-26T11:13:11.573Z,1005.76
2019-05-26T11:14:11.532Z,1005.75
2019-05-26T11:15:11.632Z,1005.80
2019-05-26T11:16:11.538Z,1005.76
2019-05-26T11:17:11.685Z,1005.73
2019-05-26T11:18:11.422Z,1005.67
2019-05-26T11:19:12.448Z,1005.64
2019-05-26T11:20:11.370Z,1005.65
2019-05-26T11:21:12.509Z,1005.61
2019-05-26T11:22:11.514Z,1005.57
2019-05-26T11:23:11.292Z,1005.56
2019-05-26T11:24:11.267Z,1005.60
2019-05-26T11:25:11.352Z,1005.62
2019-05-26T11:26:11.287Z,1005.56
2019-05-26T11:27:13.600Z,1005.58
2019-05-26T11:28:11.349Z,1005.53
2019-05-26T11:29:11.264Z,1005.46
2019-05-26T11:30:11.111Z,1005.49
2019-05-26T11:31:11.152Z,1005.49
2019-05-26T11:32:11.049Z,1005.51
2019-05-26T11:33:11.068Z,1005.52
2019-05-26T11:34:11.001Z,1005.51
2019-05-26T11:35:11.168Z,1005.52
2019-05-26T11:36:10.951Z,1005.49
2019-05-26T11:37:10.920Z,1005.51
2019-05-26T11:38:10.884Z,1005.46
2019-05-26T11:39:10.869Z,1005.40
2019-05-26T11:40:10.904Z,1005.43
2019-05-26T11:41:10.805Z,1005.52
2019-05-26T11:42:13.768Z,1005.46
2019-05-26T11:43:16.806Z,1005.39
2019-05-26T11:44:17.949Z,1005.37
2019-05-26T11:45:10.733Z,1005.41
2019-05-26T11:46:10.676Z,1005.34
2019-05-26T11:47:17.201Z,1005.34
2019-05-26T11:48:10.623Z,1005.33
2019-05-26T11:49:10.804Z,1005.32
2019-05-26T11:50:11.708Z,1005.29
2019-05-26T11:51:10.589Z,1005.28
2019-05-26T11:52:10.581Z,1005.27
2019-05-26T11:53:10.492Z,1005.23
2019-05-26T11:54:10.500Z,1005.30
2019-05-26T11:55:10.434Z,1005.27
2019-05-26T11:56:10.519Z,1005.22
2019-05-26T11:57:10.415Z,1005.20
2019-05-26T11:58:12.456Z,1005.20
2019-05-26T11:59:10.333Z,1005.23
2019-05-26T12:00:11.040Z,1005.20
2019-05-26T12:01:10.312Z,1005.21
2019-05-26T12:02:11.363Z,1005.16
2019-05-26T12:03:10.247Z,1005.13
2019-05-26T12:04:19.271Z,1005.12
2019-05-26T12:05:10.166Z,1005.14